Terminal Aerodrome Forecast
Issued by NWS Atlanta, GA

Home | Current Version | Previous Version | Text Only | Print | Product List | Glossary On
Versions: 1 2 3 4 5 6 7 8 9 10 11 12 13 14 15 16 17 18 19 20 21 22 23 24 25 26 27 28 29 30 31 32 33 34 35 36
900
FTUS42 KFFC 260529
TAFAHN
TAF
KAHN 260529Z 2606/2706 00000KT P6SM SCT250
     FM261200 07003KT P6SM SCT070
     FM261500 10004KT P6SM VCSH BKN045
     FM261800 12007KT 6SM -SHRA BKN025 PROB30 2618/2622 4SM -TSRA
      BKN025CB
     FM270200 22004KT P6SM VCSH BKN025=

USA.gov is the U.S. government's official web portal to all federal, state and local government web resources and services.